Fuget, Kentucky
Current Conditions -  °F | °C
As of 5:15 AM on Thursday 29 Jan 2015 (Local Time) from KSJS Reporting Station
Clear Clear  
Wind Chill: 31°   Ceiling: Unl
Heat Index: 35°   Visibility: 10mi
Dew Point: 19°   Wind: 5mph
Humidity: 51%   Direction: 160°SSE
Pressure: 30.08"   Gusts: NA
Location:  37.9467°N, 82.8859°W
Report Text: KSJS 291015Z AUTO 16004KT 10SM CLR 02/M07 A3008 RMK AO2 T00171075
Loading
Personal Weather Stations






























Interactive Weather Map New forecast layout! Learn more

10-Day Weather Forecast

Advertisements
Track Severe Weather on mobile